sensor_id;sensor_type;location;lat;lon;timestamp;pressure;altitude;pressure_sealevel;temperature;humidity
57763;BME280;43592;42.524;12.052;2023-04-27T00:00:23;96745.69;;;6.65;83.50
57763;BME280;43592;42.524;12.052;2023-04-27T00:02:49;96744.59;;;6.57;84.04
57763;BME280;43592;42.524;12.052;2023-04-27T00:05:14;96740.03;;;6.49;84.09
57763;BME280;43592;42.524;12.052;2023-04-27T00:07:40;96743.13;;;6.42;86.41
57763;BME280;43592;42.524;12.052;2023-04-27T00:10:06;96735.13;;;6.34;87.05
57763;BME280;43592;42.524;12.052;2023-04-27T00:12:31;96740.44;;;6.25;87.80
57763;BME280;43592;42.524;12.052;2023-04-27T00:14:57;96746.97;;;6.19;88.50
57763;BME280;43592;42.524;12.052;2023-04-27T00:17:22;96736.03;;;6.12;88.32
57763;BME280;43592;42.524;12.052;2023-04-27T00:19:48;96739.88;;;6.05;87.71
57763;BME280;43592;42.524;12.052;2023-04-27T00:22:14;96741.59;;;6.01;85.94
57763;BME280;43592;42.524;12.052;2023-04-27T00:24:40;96730.06;;;6.06;86.13
57763;BME280;43592;42.524;12.052;2023-04-27T00:27:06;96729.91;;;6.11;85.97
57763;BME280;43592;42.524;12.052;2023-04-27T00:29:31;96738.06;;;6.15;86.32
57763;BME280;43592;42.524;12.052;2023-04-27T00:31:57;96746.03;;;6.15;86.63
57763;BME280;43592;42.524;12.052;2023-04-27T00:34:22;96738.84;;;6.15;89.70
57763;BME280;43592;42.524;12.052;2023-04-27T00:36:48;96742.13;;;6.12;92.50
57763;BME280;43592;42.524;12.052;2023-04-27T00:39:13;96728.81;;;6.03;91.93
57763;BME280;43592;42.524;12.052;2023-04-27T00:41:39;96739.09;;;5.96;93.06
57763;BME280;43592;42.524;12.052;2023-04-27T00:44:04;96737.63;;;5.90;93.11
57763;BME280;43592;42.524;12.052;2023-04-27T00:46:30;96744.44;;;5.82;93.55
57763;BME280;43592;42.524;12.052;2023-04-27T00:48:56;96743.47;;;5.70;93.06
57763;BME280;43592;42.524;12.052;2023-04-27T00:51:23;96749.81;;;5.60;93.55
57763;BME280;43592;42.524;12.052;2023-04-27T00:53:52;96742.09;;;5.50;93.64
57763;BME280;43592;42.524;12.052;2023-04-27T00:56:18;96740.34;;;5.45;93.08
57763;BME280;43592;42.524;12.052;2023-04-27T00:58:44;96736.13;;;5.44;94.00
57763;BME280;43592;42.524;12.052;2023-04-27T01:01:09;96740.06;;;5.47;96.85
57763;BME280;43592;42.524;12.052;2023-04-27T01:03:35;96725.97;;;5.46;96.62
57763;BME280;43592;42.524;12.052;2023-04-27T01:06:00;96729.44;;;5.47;95.37
57763;BME280;43592;42.524;12.052;2023-04-27T01:08:29;96727.84;;;5.46;96.66
57763;BME280;43592;42.524;12.052;2023-04-27T01:10:55;96725.97;;;5.46;96.99
57763;BME280;43592;42.524;12.052;2023-04-27T01:13:20;96728.22;;;5.53;98.16
57763;BME280;43592;42.524;12.052;2023-04-27T01:15:46;96729.16;;;5.57;99.14
57763;BME280;43592;42.524;12.052;2023-04-27T01:18:11;96725.63;;;5.61;99.46
57763;BME280;43592;42.524;12.052;2023-04-27T01:20:37;96727.34;;;5.66;100.00
57763;BME280;43592;42.524;12.052;2023-04-27T01:23:03;96732.47;;;5.62;99.73
57763;BME280;43592;42.524;12.052;2023-04-27T01:25:29;96731.03;;;5.56;100.00
57763;BME280;43592;42.524;12.052;2023-04-27T01:27:55;96736.00;;;5.49;98.87
57763;BME280;43592;42.524;12.052;2023-04-27T01:30:20;96732.69;;;5.44;100.00
57763;BME280;43592;42.524;12.052;2023-04-27T01:32:49;96737.69;;;5.45;100.00
57763;BME280;43592;42.524;12.052;2023-04-27T01:35:15;96750.53;;;5.52;100.00
57763;BME280;43592;42.524;12.052;2023-04-27T01:37:40;96748.06;;;5.55;100.00
57763;BME280;43592;42.524;12.052;2023-04-27T01:40:06;96745.75;;;5.62;100.00
57763;BME280;43592;42.524;12.052;2023-04-27T01:42:32;96749.56;;;5.70;100.00
57763;BME280;43592;42.524;12.052;2023-04-27T01:44:58;96747.44;;;5.81;100.00
57763;BME280;43592;42.524;12.052;2023-04-27T01:47:24;96741.38;;;5.89;100.00
57763;BME280;43592;42.524;12.052;2023-04-27T01:49:51;96745.78;;;5.94;100.00
57763;BME280;43592;42.524;12.052;2023-04-27T01:52:16;96749.56;;;6.01;100.00
57763;BME280;43592;42.524;12.052;2023-04-27T01:54:42;96754.28;;;6.04;100.00
57763;BME280;43592;42.524;12.052;2023-04-27T01:57:07;96747.84;;;6.05;100.00
57763;BME280;43592;42.524;12.052;2023-04-27T01:59:33;96748.66;;;6.06;100.00
57763;BME280;43592;42.524;12.052;2023-04-27T02:01:58;96738.03;;;6.06;100.00
57763;BME280;43592;42.524;12.052;2023-04-27T02:04:24;96738.03;;;6.06;100.00
57763;BME280;43592;42.524;12.052;2023-04-27T02:06:49;96748.66;;;6.06;100.00
57763;BME280;43592;42.524;12.052;2023-04-27T02:09:15;96747.41;;;6.03;100.00
57763;BME280;43592;42.524;12.052;2023-04-27T02:11:41;96752.22;;;6.01;100.00
57763;BME280;43592;42.524;12.052;2023-04-27T02:14:06;96750.19;;;5.98;100.00
57763;BME280;43592;42.524;12.052;2023-04-27T02:16:32;96759.34;;;5.92;100.00
57763;BME280;43592;42.524;12.052;2023-04-27T02:18:57;96755.28;;;5.86;100.00
57763;BME280;43592;42.524;12.052;2023-04-27T02:21:23;96749.47;;;5.84;100.00
57763;BME280;43592;42.524;12.052;2023-04-27T02:23:49;96750.88;;;5.81;100.00
57763;BME280;43592;42.524;12.052;2023-04-27T02:26:18;96755.19;;;5.77;100.00
57763;BME280;43592;42.524;12.052;2023-04-27T02:28:45;96747.69;;;5.71;100.00
57763;BME280;43592;42.524;12.052;2023-04-27T02:31:12;96744.84;;;5.67;100.00
57763;BME280;43592;42.524;12.052;2023-04-27T02:33:38;96747.34;;;5.63;100.00
57763;BME280;43592;42.524;12.052;2023-04-27T02:36:03;96751.84;;;5.63;100.00
57763;BME280;43592;42.524;12.052;2023-04-27T02:38:29;96754.34;;;5.59;100.00
57763;BME280;43592;42.524;12.052;2023-04-27T02:40:55;96750.91;;;5.59;100.00
57763;BME280;43592;42.524;12.052;2023-04-27T02:43:20;96745.09;;;5.57;100.00
57763;BME280;43592;42.524;12.052;2023-04-27T02:45:46;96744.31;;;5.56;100.00
57763;BME280;43592;42.524;12.052;2023-04-27T02:48:12;96742.16;;;5.58;100.00
57763;BME280;43592;42.524;12.052;2023-04-27T02:50:40;96743.88;;;5.63;100.00
57763;BME280;43592;42.524;12.052;2023-04-27T02:53:06;96748.78;;;5.70;100.00
57763;BME280;43592;42.524;12.052;2023-04-27T02:55:32;96749.44;;;5.75;100.00
57763;BME280;43592;42.524;12.052;2023-04-27T02:57:58;96751.16;;;5.80;100.00
57763;BME280;43592;42.524;12.052;2023-04-27T03:00:23;96761.31;;;5.78;100.00
57763;BME280;43592;42.524;12.052;2023-04-27T03:02:49;96753.47;;;5.73;100.00
57763;BME280;43592;42.524;12.052;2023-04-27T03:05:15;96740.81;;;5.70;100.00
57763;BME280;43592;42.524;12.052;2023-04-27T03:07:41;96746.91;;;5.70;100.00
57763;BME280;43592;42.524;12.052;2023-04-27T03:10:06;96750.34;;;5.71;100.00
57763;BME280;43592;42.524;12.052;2023-04-27T03:12:32;96755.66;;;5.71;100.00
57763;BME280;43592;42.524;12.052;2023-04-27T03:14:57;96765.53;;;5.79;100.00
57763;BME280;43592;42.524;12.052;2023-04-27T03:17:24;96763.38;;;5.81;100.00
57763;BME280;43592;42.524;12.052;2023-04-27T03:19:49;96763.25;;;5.86;100.00
57763;BME280;43592;42.524;12.052;2023-04-27T03:22:15;96766.06;;;5.90;100.00
57763;BME280;43592;42.524;12.052;2023-04-27T03:24:40;96767.53;;;5.96;100.00
57763;BME280;43592;42.524;12.052;2023-04-27T03:27:07;96754.41;;;5.99;100.00
57763;BME280;43592;42.524;12.052;2023-04-27T03:29:32;96756.16;;;6.04;100.00
57763;BME280;43592;42.524;12.052;2023-04-27T03:31:58;96749.75;;;6.05;100.00
57763;BME280;43592;42.524;12.052;2023-04-27T03:34:23;96758.19;;;6.07;100.00
57763;BME280;43592;42.524;12.052;2023-04-27T03:36:49;96756.44;;;6.02;100.00
57763;BME280;43592;42.524;12.052;2023-04-27T03:39:15;96755.50;;;5.98;100.00
57763;BME280;43592;42.524;12.052;2023-04-27T03:41:40;96757.31;;;5.89;100.00
57763;BME280;43592;42.524;12.052;2023-04-27T03:44:06;96758.34;;;5.79;100.00
57763;BME280;43592;42.524;12.052;2023-04-27T03:46:31;96749.38;;;5.67;100.00
57763;BME280;43592;42.524;12.052;2023-04-27T03:48:57;96753.25;;;5.60;100.00
57763;BME280;43592;42.524;12.052;2023-04-27T03:51:22;96759.75;;;5.54;100.00
57763;BME280;43592;42.524;12.052;2023-04-27T03:53:48;96755.66;;;5.48;100.00
57763;BME280;43592;42.524;12.052;2023-04-27T03:56:14;96763.75;;;5.43;100.00
57763;BME280;43592;42.524;12.052;2023-04-27T03:58:40;96767.50;;;5.42;100.00
57763;BME280;43592;42.524;12.052;2023-04-27T04:01:05;96776.72;;;5.45;100.00
57763;BME280;43592;42.524;12.052;2023-04-27T04:03:34;96770.53;;;5.49;100.00
57763;BME280;43592;42.524;12.052;2023-04-27T04:06:00;96777.72;;;5.57;100.00
57763;BME280;43592;42.524;12.052;2023-04-27T04:08:28;96782.31;;;5.66;100.00
57763;BME280;43592;42.524;12.052;2023-04-27T04:10:53;96779.41;;;5.76;100.00
57763;BME280;43592;42.524;12.052;2023-04-27T04:13:20;96792.25;;;5.82;100.00
57763;BME280;43592;42.524;12.052;2023-04-27T04:15:46;96784.78;;;5.84;100.00
57763;BME280;43592;42.524;12.052;2023-04-27T04:18:11;96784.50;;;5.86;100.00
57763;BME280;43592;42.524;12.052;2023-04-27T04:20:37;96790.09;;;5.84;100.00
57763;BME280;43592;42.524;12.052;2023-04-27T04:23:02;96792.47;;;5.86;100.00
57763;BME280;43592;42.524;12.052;2023-04-27T04:25:28;96789.47;;;5.88;100.00
57763;BME280;43592;42.524;12.052;2023-04-27T04:27:53;96798.72;;;5.90;100.00
57763;BME280;43592;42.524;12.052;2023-04-27T04:30:19;96806.09;;;5.93;100.00
57763;BME280;43592;42.524;12.052;2023-04-27T04:32:44;96812.97;;;5.94;100.00
57763;BME280;43592;42.524;12.052;2023-04-27T04:35:10;96809.06;;;5.92;100.00
57763;BME280;43592;42.524;12.052;2023-04-27T04:37:36;96805.91;;;5.90;100.00
57763;BME280;43592;42.524;12.052;2023-04-27T04:40:04;96816.13;;;5.96;100.00
57763;BME280;43592;42.524;12.052;2023-04-27T04:42:33;96809.78;;;6.06;100.00
57763;BME280;43592;42.524;12.052;2023-04-27T04:45:00;96815.75;;;6.12;100.00
57763;BME280;43592;42.524;12.052;2023-04-27T04:47:25;96822.16;;;6.19;100.00
57763;BME280;43592;42.524;12.052;2023-04-27T04:49:51;96824.41;;;6.26;100.00
57763;BME280;43592;42.524;12.052;2023-04-27T04:52:16;96833.31;;;6.30;100.00
57763;BME280;43592;42.524;12.052;2023-04-27T04:54:42;96826.31;;;6.34;100.00
57763;BME280;43592;42.524;12.052;2023-04-27T04:57:07;96844.31;;;6.37;100.00
57763;BME280;43592;42.524;12.052;2023-04-27T04:59:33;96842.31;;;6.43;100.00
57763;BME280;43592;42.524;12.052;2023-04-27T05:01:59;96844.03;;;6.47;100.00
57763;BME280;43592;42.524;12.052;2023-04-27T05:04:24;96845.44;;;6.53;100.00
57763;BME280;43592;42.524;12.052;2023-04-27T05:06:50;96840.50;;;6.61;100.00
57763;BME280;43592;42.524;12.052;2023-04-27T05:09:19;96846.94;;;6.68;100.00
57763;BME280;43592;42.524;12.052;2023-04-27T05:11:44;96852.56;;;6.75;100.00
57763;BME280;43592;42.524;12.052;2023-04-27T05:14:10;96857.63;;;6.86;100.00
57763;BME280;43592;42.524;12.052;2023-04-27T05:16:35;96858.72;;;6.93;100.00
57763;BME280;43592;42.524;12.052;2023-04-27T05:19:01;96860.63;;;7.02;100.00
57763;BME280;43592;42.524;12.052;2023-04-27T05:21:26;96861.25;;;7.07;100.00
57763;BME280;43592;42.524;12.052;2023-04-27T05:23:52;96863.94;;;7.16;100.00
57763;BME280;43592;42.524;12.052;2023-04-27T05:26:17;96869.59;;;7.23;100.00
57763;BME280;43592;42.524;12.052;2023-04-27T05:28:43;96873.81;;;7.33;100.00
57763;BME280;43592;42.524;12.052;2023-04-27T05:31:09;96872.41;;;7.44;100.00
57763;BME280;43592;42.524;12.052;2023-04-27T05:33:34;96877.16;;;7.56;100.00
57763;BME280;43592;42.524;12.052;2023-04-27T05:36:00;96874.63;;;7.68;100.00
57763;BME280;43592;42.524;12.052;2023-04-27T05:38:26;96873.22;;;7.79;100.00
57763;BME280;43592;42.524;12.052;2023-04-27T05:40:57;96866.75;;;7.89;100.00
57763;BME280;43592;42.524;12.052;2023-04-27T05:43:23;96876.16;;;8.04;100.00
57763;BME280;43592;42.524;12.052;2023-04-27T05:45:49;96871.09;;;8.20;100.00
57763;BME280;43592;42.524;12.052;2023-04-27T05:48:15;96870.00;;;8.29;100.00
57763;BME280;43592;42.524;12.052;2023-04-27T05:50:40;96872.47;;;8.43;100.00
57763;BME280;43592;42.524;12.052;2023-04-27T05:53:06;96873.03;;;8.58;100.00
57763;BME280;43592;42.524;12.052;2023-04-27T05:55:31;96881.31;;;8.73;100.00
57763;BME280;43592;42.524;12.052;2023-04-27T05:57:57;96882.34;;;8.90;100.00
57763;BME280;43592;42.524;12.052;2023-04-27T06:00:22;96882.53;;;9.14;100.00
57763;BME280;43592;42.524;12.052;2023-04-27T06:02:49;96880.28;;;9.46;100.00
57763;BME280;43592;42.524;12.052;2023-04-27T06:05:14;96887.28;;;9.93;100.00
57763;BME280;43592;42.524;12.052;2023-04-27T06:07:40;96881.16;;;10.83;100.00
57763;BME280;43592;42.524;12.052;2023-04-27T06:10:11;96872.75;;;12.15;100.00
57763;BME280;43592;42.524;12.052;2023-04-27T06:12:36;96877.88;;;13.50;100.00
57763;BME280;43592;42.524;12.052;2023-04-27T06:15:03;96884.22;;;14.58;97.36
57763;BME280;43592;42.524;12.052;2023-04-27T06:17:35;96882.97;;;15.55;90.33
57763;BME280;43592;42.524;12.052;2023-04-27T06:20:02;96884.88;;;16.52;82.33
57763;BME280;43592;42.524;12.052;2023-04-27T06:22:31;96889.75;;;17.28;76.53
57763;BME280;43592;42.524;12.052;2023-04-27T06:24:56;96890.38;;;17.66;75.44
57763;BME280;43592;42.524;12.052;2023-04-27T06:27:22;96879.78;;;18.31;71.79
57763;BME280;43592;42.524;12.052;2023-04-27T06:29:47;96884.53;;;18.84;70.39
57763;BME280;43592;42.524;12.052;2023-04-27T06:32:13;96896.50;;;19.33;67.90
57763;BME280;43592;42.524;12.052;2023-04-27T06:34:38;96897.66;;;19.68;66.02
57763;BME280;43592;42.524;12.052;2023-04-27T06:37:04;96895.25;;;19.91;65.67
57763;BME280;43592;42.524;12.052;2023-04-27T06:39:30;96890.44;;;20.24;63.70
57763;BME280;43592;42.524;12.052;2023-04-27T06:41:56;96888.28;;;20.64;62.29
57763;BME280;43592;42.524;12.052;2023-04-27T06:44:22;96893.97;;;20.80;60.56
57763;BME280;43592;42.524;12.052;2023-04-27T06:46:48;96892.75;;;20.92;60.22
57763;BME280;43592;42.524;12.052;2023-04-27T06:49:13;96903.97;;;20.98;61.50
57763;BME280;43592;42.524;12.052;2023-04-27T06:51:39;96904.06;;;21.28;60.13
57763;BME280;43592;42.524;12.052;2023-04-27T06:54:04;96901.47;;;21.63;58.24
57763;BME280;43592;42.524;12.052;2023-04-27T06:56:30;96896.78;;;21.97;57.18
57763;BME280;43592;42.524;12.052;2023-04-27T06:58:56;96898.75;;;22.28;55.52
57763;BME280;43592;42.524;12.052;2023-04-27T07:01:21;96901.94;;;22.53;56.15
57763;BME280;43592;42.524;12.052;2023-04-27T07:03:47;96897.19;;;22.57;54.58
57763;BME280;43592;42.524;12.052;2023-04-27T07:06:12;96902.78;;;22.47;54.50
57763;BME280;43592;42.524;12.052;2023-04-27T07:08:38;96895.75;;;22.49;53.87
57763;BME280;43592;42.524;12.052;2023-04-27T07:11:03;96906.56;;;22.56;53.03
57763;BME280;43592;42.524;12.052;2023-04-27T07:13:29;96898.03;;;22.78;53.91
57763;BME280;43592;42.524;12.052;2023-04-27T07:15:54;96892.91;;;22.83;53.08
57763;BME280;43592;42.524;12.052;2023-04-27T07:18:23;96909.16;;;22.91;52.84
57763;BME280;43592;42.524;12.052;2023-04-27T07:20:50;96897.50;;;22.90;52.12
57763;BME280;43592;42.524;12.052;2023-04-27T07:23:15;96905.72;;;22.86;51.35
57763;BME280;43592;42.524;12.052;2023-04-27T07:25:41;96908.09;;;22.84;52.31
57763;BME280;43592;42.524;12.052;2023-04-27T07:28:07;96907.41;;;23.04;50.97
57763;BME280;43592;42.524;12.052;2023-04-27T07:30:33;96908.38;;;23.17;50.43
57763;BME280;43592;42.524;12.052;2023-04-27T07:33:01;96895.53;;;23.38;50.01
57763;BME280;43592;42.524;12.052;2023-04-27T07:35:26;96899.38;;;23.40;49.13
57763;BME280;43592;42.524;12.052;2023-04-27T07:37:52;96905.56;;;23.44;48.73
57763;BME280;43592;42.524;12.052;2023-04-27T07:40:18;96905.31;;;23.59;48.94
57763;BME280;43592;42.524;12.052;2023-04-27T07:42:43;96906.91;;;23.80;47.92
57763;BME280;43592;42.524;12.052;2023-04-27T07:45:10;96899.19;;;23.74;48.33
57763;BME280;43592;42.524;12.052;2023-04-27T07:47:36;96899.97;;;23.51;47.38
57763;BME280;43592;42.524;12.052;2023-04-27T07:50:03;96904.31;;;23.49;48.67
57763;BME280;43592;42.524;12.052;2023-04-27T07:52:30;96899.78;;;23.62;50.05
57763;BME280;43592;42.524;12.052;2023-04-27T07:54:56;96899.41;;;23.60;48.66
57763;BME280;43592;42.524;12.052;2023-04-27T07:57:21;96896.13;;;23.69;46.55
57763;BME280;43592;42.524;12.052;2023-04-27T07:59:47;96899.97;;;23.75;46.25
57763;BME280;43592;42.524;12.052;2023-04-27T08:02:12;96911.06;;;23.64;47.74
57763;BME280;43592;42.524;12.052;2023-04-27T08:04:38;96908.25;;;23.68;45.71
57763;BME280;43592;42.524;12.052;2023-04-27T08:07:03;96905.84;;;23.73;45.88
57763;BME280;43592;42.524;12.052;2023-04-27T08:09:29;96904.44;;;23.85;45.18
57763;BME280;43592;42.524;12.052;2023-04-27T08:11:56;96911.72;;;23.92;44.11
57763;BME280;43592;42.524;12.052;2023-04-27T08:14:21;96912.84;;;23.94;43.50
57763;BME280;43592;42.524;12.052;2023-04-27T08:16:47;96916.63;;;23.81;42.53
57763;BME280;43592;42.524;12.052;2023-04-27T08:19:13;96916.50;;;23.44;43.78
57763;BME280;43592;42.524;12.052;2023-04-27T08:21:38;96918.13;;;23.38;44.56
57763;BME280;43592;42.524;12.052;2023-04-27T08:24:04;96913.78;;;23.64;44.78
57763;BME280;43592;42.524;12.052;2023-04-27T08:26:31;96919.72;;;23.83;41.62
57763;BME280;43592;42.524;12.052;2023-04-27T08:28:56;96916.50;;;23.88;39.29
57763;BME280;43592;42.524;12.052;2023-04-27T08:31:24;96920.19;;;23.78;39.67
57763;BME280;43592;42.524;12.052;2023-04-27T08:33:50;96919.38;;;23.57;39.82
57763;BME280;43592;42.524;12.052;2023-04-27T08:36:17;96921.72;;;23.35;40.29
57763;BME280;43592;42.524;12.052;2023-04-27T08:38:42;96923.84;;;23.47;40.73
57763;BME280;43592;42.524;12.052;2023-04-27T08:41:08;96925.06;;;23.66;40.33
57763;BME280;43592;42.524;12.052;2023-04-27T08:43:34;96924.41;;;23.82;41.06
57763;BME280;43592;42.524;12.052;2023-04-27T08:46:00;96922.59;;;23.95;37.82
57763;BME280;43592;42.524;12.052;2023-04-27T08:48:25;96928.91;;;23.92;38.91
57763;BME280;43592;42.524;12.052;2023-04-27T08:50:51;96932.97;;;23.84;39.41
57763;BME280;43592;42.524;12.052;2023-04-27T08:53:17;96924.00;;;23.84;39.82
57763;BME280;43592;42.524;12.052;2023-04-27T08:55:43;96927.56;;;23.57;38.08
57763;BME280;43592;42.524;12.052;2023-04-27T08:58:08;96923.13;;;23.43;38.47
57763;BME280;43592;42.524;12.052;2023-04-27T09:00:37;96935.31;;;23.15;36.17
57763;BME280;43592;42.524;12.052;2023-04-27T09:03:07;96932.34;;;23.29;39.32
57763;BME280;43592;42.524;12.052;2023-04-27T09:05:33;96930.56;;;23.43;38.23
57763;BME280;43592;42.524;12.052;2023-04-27T09:07:59;96928.72;;;23.36;38.79
57763;BME280;43592;42.524;12.052;2023-04-27T09:10:26;96924.81;;;23.37;39.47
57763;BME280;43592;42.524;12.052;2023-04-27T09:12:54;96934.47;;;23.42;39.98
57763;BME280;43592;42.524;12.052;2023-04-27T09:15:20;96926.41;;;23.58;39.75
57763;BME280;43592;42.524;12.052;2023-04-27T09:17:45;96936.19;;;23.56;38.36
57763;BME280;43592;42.524;12.052;2023-04-27T09:20:16;96922.69;;;23.68;41.97
57763;BME280;43592;42.524;12.052;2023-04-27T09:22:50;96931.38;;;23.87;38.46
57763;BME280;43592;42.524;12.052;2023-04-27T09:25:29;96931.31;;;23.67;38.75
57763;BME280;43592;42.524;12.052;2023-04-27T09:27:55;96926.97;;;23.69;39.11
57763;BME280;43592;42.524;12.052;2023-04-27T09:30:22;96927.38;;;23.68;41.16
57763;BME280;43592;42.524;12.052;2023-04-27T09:32:49;96918.53;;;23.60;39.27
57763;BME280;43592;42.524;12.052;2023-04-27T09:35:19;96920.56;;;23.56;37.06
57763;BME280;43592;42.524;12.052;2023-04-27T09:37:45;96919.81;;;23.32;36.88
57763;BME280;43592;42.524;12.052;2023-04-27T09:40:11;96919.59;;;22.99;36.40
57763;BME280;43592;42.524;12.052;2023-04-27T09:42:37;96920.75;;;22.98;39.47
57763;BME280;43592;42.524;12.052;2023-04-27T09:45:03;96919.16;;;23.01;36.48
57763;BME280;43592;42.524;12.052;2023-04-27T09:47:29;96918.44;;;22.97;36.47
57763;BME280;43592;42.524;12.052;2023-04-27T09:49:56;96920.19;;;23.11;36.86
57763;BME280;43592;42.524;12.052;2023-04-27T09:52:23;96929.25;;;23.04;35.38
57763;BME280;43592;42.524;12.052;2023-04-27T09:54:50;96921.53;;;22.99;38.76
57763;BME280;43592;42.524;12.052;2023-04-27T09:59:47;96923.31;;;23.09;34.87
57763;BME280;43592;42.524;12.052;2023-04-27T10:02:18;96924.09;;;23.09;34.04
57763;BME280;43592;42.524;12.052;2023-04-27T10:07:25;96927.91;;;23.16;34.45
57763;BME280;43592;42.524;12.052;2023-04-27T10:09:51;96927.25;;;23.31;36.58
57763;BME280;43592;42.524;12.052;2023-04-27T10:12:20;96932.91;;;23.64;39.26
57763;BME280;43592;42.524;12.052;2023-04-27T10:14:50;96924.13;;;23.77;31.85
57763;BME280;43592;42.524;12.052;2023-04-27T10:17:16;96928.03;;;23.52;32.67
57763;BME280;43592;42.524;12.052;2023-04-27T10:19:54;96925.97;;;23.13;33.00
57763;BME280;43592;42.524;12.052;2023-04-27T10:22:20;96931.06;;;22.60;34.57
57763;BME280;43592;42.524;12.052;2023-04-27T10:24:47;96932.69;;;22.54;40.13
57763;BME280;43592;42.524;12.052;2023-04-27T10:27:15;96928.41;;;22.80;36.00
57763;BME280;43592;42.524;12.052;2023-04-27T10:29:45;96930.28;;;23.14;33.50
57763;BME280;43592;42.524;12.052;2023-04-27T10:32:12;96934.19;;;23.36;31.68
57763;BME280;43592;42.524;12.052;2023-04-27T10:34:42;96928.59;;;23.43;31.31
57763;BME280;43592;42.524;12.052;2023-04-27T10:37:11;96924.44;;;23.35;33.11
57763;BME280;43592;42.524;12.052;2023-04-27T10:39:39;96923.84;;;23.24;33.77
57763;BME280;43592;42.524;12.052;2023-04-27T10:42:04;96924.63;;;23.48;35.06
57763;BME280;43592;42.524;12.052;2023-04-27T10:44:31;96921.75;;;23.55;33.06
57763;BME280;43592;42.524;12.052;2023-04-27T10:46:57;96923.00;;;23.94;37.30
57763;BME280;43592;42.524;12.052;2023-04-27T10:49:25;96927.50;;;24.24;35.94
57763;BME280;43592;42.524;12.052;2023-04-27T10:51:51;96927.72;;;24.70;36.70
57763;BME280;43592;42.524;12.052;2023-04-27T10:54:16;96915.66;;;24.67;31.73
57763;BME280;43592;42.524;12.052;2023-04-27T10:56:42;96907.59;;;24.60;36.97
57763;BME280;43592;42.524;12.052;2023-04-27T10:59:08;96909.16;;;24.94;36.99
57763;BME280;43592;42.524;12.052;2023-04-27T11:01:34;96906.34;;;24.97;36.78
57763;BME280;43592;42.524;12.052;2023-04-27T11:04:00;96910.91;;;25.37;37.09
57763;BME280;43592;42.524;12.052;2023-04-27T11:06:28;96917.53;;;25.52;36.15
57763;BME280;43592;42.524;12.052;2023-04-27T11:08:54;96916.69;;;25.39;35.39
57763;BME280;43592;42.524;12.052;2023-04-27T11:11:20;96911.66;;;25.37;36.03
57763;BME280;43592;42.524;12.052;2023-04-27T11:13:47;96905.44;;;25.66;37.95
57763;BME280;43592;42.524;12.052;2023-04-27T11:16:14;96906.72;;;25.61;35.77
57763;BME280;43592;42.524;12.052;2023-04-27T11:18:39;96906.03;;;25.28;32.46
57763;BME280;43592;42.524;12.052;2023-04-27T11:23:31;96907.34;;;25.52;36.26
57763;BME280;43592;42.524;12.052;2023-04-27T11:26:20;96907.59;;;25.58;35.08
57763;BME280;43592;42.524;12.052;2023-04-27T11:31:24;96899.69;;;24.98;31.51
57763;BME280;43592;42.524;12.052;2023-04-27T11:33:50;96896.94;;;24.82;34.85
57763;BME280;43592;42.524;12.052;2023-04-27T11:36:20;96902.84;;;24.80;33.86
57763;BME280;43592;42.524;12.052;2023-04-27T11:38:46;96893.16;;;24.76;34.10
57763;BME280;43592;42.524;12.052;2023-04-27T11:41:11;96895.97;;;24.56;32.92
57763;BME280;43592;42.524;12.052;2023-04-27T11:43:40;96898.03;;;24.68;35.64
57763;BME280;43592;42.524;12.052;2023-04-27T11:46:07;96901.47;;;24.72;36.12
57763;BME280;43592;42.524;12.052;2023-04-27T11:48:35;96908.31;;;24.80;37.83
57763;BME280;43592;42.524;12.052;2023-04-27T11:51:01;96891.69;;;24.71;34.05
57763;BME280;43592;42.524;12.052;2023-04-27T11:53:27;96894.66;;;24.97;38.57
57763;BME280;43592;42.524;12.052;2023-04-27T11:55:53;96889.16;;;24.97;35.79
57763;BME280;43592;42.524;12.052;2023-04-27T11:58:19;96887.25;;;24.94;36.52
57763;BME280;43592;42.524;12.052;2023-04-27T12:00:45;96889.50;;;24.99;37.74
57763;BME280;43592;42.524;12.052;2023-04-27T12:03:11;96880.59;;;25.11;37.35
57763;BME280;43592;42.524;12.052;2023-04-27T12:05:46;96878.28;;;25.09;36.62
57763;BME280;43592;42.524;12.052;2023-04-27T12:08:11;96881.13;;;25.06;33.65
57763;BME280;43592;42.524;12.052;2023-04-27T12:10:37;96890.69;;;24.98;32.81
57763;BME280;43592;42.524;12.052;2023-04-27T12:13:03;96877.72;;;24.85;33.32
57763;BME280;43592;42.524;12.052;2023-04-27T12:15:29;96885.19;;;24.49;34.02
57763;BME280;43592;42.524;12.052;2023-04-27T12:17:54;96882.31;;;24.72;37.63
57763;BME280;43592;42.524;12.052;2023-04-27T12:20:20;96888.31;;;24.83;37.63
57763;BME280;43592;42.524;12.052;2023-04-27T12:22:46;96897.69;;;24.99;37.00
57763;BME280;43592;42.524;12.052;2023-04-27T12:25:11;96888.81;;;24.95;35.75
57763;BME280;43592;42.524;12.052;2023-04-27T12:27:37;96883.69;;;24.80;33.08
57763;BME280;43592;42.524;12.052;2023-04-27T12:30:02;96894.28;;;24.78;38.75
57763;BME280;43592;42.524;12.052;2023-04-27T12:32:28;96885.47;;;24.71;32.98
57763;BME280;43592;42.524;12.052;2023-04-27T12:34:54;96885.97;;;24.65;34.13
57763;BME280;43592;42.524;12.052;2023-04-27T12:37:20;96890.94;;;24.71;37.01
57763;BME280;43592;42.524;12.052;2023-04-27T12:39:46;96886.56;;;24.73;37.89
57763;BME280;43592;42.524;12.052;2023-04-27T12:42:11;96893.28;;;24.89;38.37
57763;BME280;43592;42.524;12.052;2023-04-27T12:44:37;96890.00;;;24.94;35.35
57763;BME280;43592;42.524;12.052;2023-04-27T12:47:02;96892.13;;;25.02;34.78
57763;BME280;43592;42.524;12.052;2023-04-27T12:49:29;96894.88;;;25.02;33.91
57763;BME280;43592;42.524;12.052;2023-04-27T12:51:55;96889.22;;;24.93;35.46
57763;BME280;43592;42.524;12.052;2023-04-27T12:54:22;96881.63;;;25.01;35.11